Time;durP1;ratioP1;P1;durP2;ratioP2;P2;SDS_P1;SDS_P2;PMS_P1;PMS_P2;Temp;Humidity;BMP_temperature;BMP_pressure;BME280_temperature;BME280_humidity;BME280_pressure;Samples;Min_cycle;Max_cycle;Signal;HPM_P1;HPM_P2
2022/05/20 00:01:18;;;;;;;7.60;4.40;;;;;;;18.02;37.85;100621.13;108601;1279;23101;-81
2022/05/20 00:03:50;;;;;;;11.20;4.90;;;;;;;17.91;37.94;100624.60;108374;1279;21998;-80
2022/05/20 00:06:21;;;;;;;7.30;4.10;;;;;;;17.76;38.29;100622.65;108356;1279;21995;-79
2022/05/20 00:08:50;;;;;;;7.70;3.90;;;;;;;17.63;38.64;100622.61;108418;1279;21985;-80
2022/05/20 00:11:20;;;;;;;7.50;4.10;;;;;;;17.53;39.04;100621.84;108620;1274;23691;-80
2022/05/20 00:13:52;;;;;;;10.30;4.60;;;;;;;17.44;39.36;100616.29;108613;1270;22441;-80
2022/05/20 00:16:24;;;;;;;7.10;4.50;;;;;;;17.37;39.56;100612.23;109161;1267;21996;-79
2022/05/20 00:18:54;;;;;;;9.60;4.60;;;;;;;17.29;39.64;100613.70;109128;1267;23628;-79
2022/05/20 00:21:26;;;;;;;12.10;4.70;;;;;;;17.23;39.84;100608.86;108481;1273;22092;-79
2022/05/20 00:23:57;;;;;;;14.60;5.60;;;;;;;17.14;39.97;100601.99;108745;1270;23151;-79
2022/05/20 00:26:26;;;;;;;9.70;6.50;;;;;;;17.07;40.26;100600.60;108711;1272;21990;-79
2022/05/20 00:28:56;;;;;;;10.60;6.20;;;;;;;17.01;40.42;100607.98;108945;1270;23099;-80
2022/05/20 00:31:27;;;;;;;9.60;5.80;;;;;;;16.97;40.65;100613.40;108745;1273;22000;-81
2022/05/20 00:34:00;;;;;;;9.50;5.70;;;;;;;16.91;40.66;100608.64;109019;1270;22038;-81
2022/05/20 00:36:30;;;;;;;;;;;;;;;16.87;40.87;100606.20;108990;1273;21973;-80
2022/05/20 00:39:02;;;;;;;12.00;6.60;;;;;;;16.74;40.99;100604.55;108983;1273;22005;-80
2022/05/20 00:41:33;;;;;;;12.10;6.80;;;;;;;16.67;41.03;100603.14;108986;1272;21995;-81
2022/05/20 00:44:02;;;;;;;10.70;7.40;;;;;;;16.63;41.27;100602.80;109016;1273;22061;-82
2022/05/20 00:46:33;;;;;;;13.00;7.60;;;;;;;16.61;41.38;100605.41;108951;1267;22736;-83
2022/05/20 00:49:22;;;;;;;12.30;7.60;;;;;;;16.59;41.28;100610.73;109254;1267;21988;-82
2022/05/20 00:51:58;;;;;;;11.30;7.40;;;;;;;16.55;41.40;100611.38;108855;1273;22045;-81
2022/05/20 00:54:37;;;;;;;12.40;6.90;;;;;;;16.52;41.57;100610.72;108991;1273;23618;-80
2022/05/20 00:57:11;;;;;;;8.90;6.60;;;;;;;16.51;41.70;100606.73;108832;1272;22233;-80
2022/05/20 00:59:57;;;;;;;12.30;8.50;;;;;;;16.51;41.72;100602.27;108750;1272;22058;-81
2022/05/20 01:02:30;;;;;;;15.00;9.70;;;;;;;16.47;41.76;100601.06;108812;1271;22008;-81
2022/05/20 01:05:03;;;;;;;16.20;10.50;;;;;;;16.39;41.78;100598.13;108448;1276;23629;-82
2022/05/20 01:07:39;;;;;;;16.90;10.70;;;;;;;16.33;42.01;100600.44;108415;1276;23713;-82
2022/05/20 01:10:10;;;;;;;15.20;10.90;;;;;;;16.27;42.19;100599.36;108556;1273;23078;-81
2022/05/20 01:12:40;;;;;;;19.00;10.40;;;;;;;16.21;42.29;100604.28;108456;1276;22008;-83
2022/05/20 01:15:11;;;;;;;;;;;;;;;16.13;42.34;100602.98;108450;1276;23657;-81
2022/05/20 01:17:41;;;;;;;9.70;7.30;;;;;;;15.98;42.59;100602.70;108473;1276;22056;-81
2022/05/20 01:20:20;;;;;;;11.80;6.30;;;;;;;15.90;42.78;100615.86;108381;1276;22084;-81
2022/05/20 01:23:06;;;;;;;12.20;6.60;;;;;;;15.85;43.08;100614.19;108560;1273;21983;-82
2022/05/20 01:25:45;;;;;;;10.30;6.10;;;;;;;15.79;43.24;100618.29;108861;1275;23805;-82
2022/05/20 01:28:18;;;;;;;12.60;6.90;;;;;;;15.74;43.37;100618.54;108563;1279;22012;-82
2022/05/20 01:30:56;;;;;;;;;;;;;;;15.69;43.53;100618.21;108658;1273;22049;-82
2022/05/20 01:33:36;;;;;;;7.10;5.60;;;;;;;15.53;43.76;100612.95;108674;1274;22061;-81
2022/05/20 01:36:16;;;;;;;12.40;6.30;;;;;;;15.45;43.93;100616.17;108411;1273;23715;-81
2022/05/20 01:38:49;;;;;;;10.10;6.00;;;;;;;15.41;44.13;100617.27;108428;1273;23027;-81
2022/05/20 01:41:31;;;;;;;9.50;5.60;;;;;;;15.38;44.28;100620.70;108677;1273;22029;-80
2022/05/20 01:44:43;;;;;;;10.60;6.70;;;;;;;15.34;44.46;100613.88;108880;1270;23620;-80
2022/05/20 01:47:30;;;;;;;8.00;6.80;;;;;;;15.28;44.59;100604.89;109129;1266;22176;-81
2022/05/20 01:50:31;;;;;;;15.40;8.60;;;;;;;15.24;44.70;100595.09;108968;1267;21992;-81
2022/05/20 01:53:35;;;;;;;10.50;7.60;;;;;;;15.22;44.99;100600.50;108434;1273;22098;-80
2022/05/20 01:56:25;;;;;;;12.40;6.90;;;;;;;15.22;45.10;100606.20;108594;1276;21994;-81
2022/05/20 01:59:07;;;;;;;12.20;6.90;;;;;;;15.18;45.10;100602.27;108599;1276;23653;-81
2022/05/20 02:01:54;;;;;;;12.20;7.20;;;;;;;15.13;45.35;100603.42;108620;1275;22106;-82
2022/05/20 02:04:38;;;;;;;9.10;6.50;;;;;;;15.10;45.51;100604.50;108614;1276;22007;-81
2022/05/20 02:07:20;;;;;;;9.40;6.90;;;;;;;15.08;45.57;100599.08;108620;1276;22120;-80
2022/05/20 02:10:05;;;;;;;10.00;6.50;;;;;;;15.04;45.72;100596.27;108541;1276;22000;-81
2022/05/20 02:12:46;;;;;;;9.80;6.60;;;;;;;15.02;45.85;100596.33;108639;1276;23711;-81
2022/05/20 02:15:25;;;;;;;19.60;9.70;;;;;;;14.98;45.88;100593.51;108735;1273;21985;-81
2022/05/20 02:18:04;;;;;;;13.30;10.40;;;;;;;14.93;45.95;100594.76;108918;1273;21993;-82
2022/05/20 02:20:54;;;;;;;15.30;9.80;;;;;;;14.86;46.04;100603.16;108702;1273;22101;-82
2022/05/20 02:23:37;;;;;;;14.40;9.90;;;;;;;14.81;46.23;100607.01;108909;1273;22084;-81
2022/05/20 02:26:23;;;;;;;15.50;12.20;;;;;;;14.78;46.29;100598.88;108341;1279;22318;-80
2022/05/20 02:29:03;;;;;;;26.30;13.30;;;;;;;14.74;46.45;100597.20;108157;1284;22019;-80
2022/05/20 02:31:51;;;;;;;18.30;13.10;;;;;;;14.72;46.50;100593.05;108295;1281;22013;-81
2022/05/20 02:34:23;;;;;;;19.40;12.00;;;;;;;14.69;46.62;100592.76;108213;1278;23636;-80
2022/05/20 02:36:53;;;;;;;16.80;11.30;;;;;;;14.69;46.75;100593.55;108098;1282;22036;-80
2022/05/20 02:39:23;;;;;;;18.10;10.40;;;;;;;14.70;46.76;100588.27;108248;1281;23068;-81
2022/05/20 02:41:54;;;;;;;14.30;9.10;;;;;;;14.70;46.74;100586.06;108087;1282;23138;-80
2022/05/20 02:44:24;;;;;;;10.90;8.30;;;;;;;14.68;46.89;100592.95;108199;1281;22516;-80
2022/05/20 02:46:57;;;;;;;13.80;7.80;;;;;;;14.69;46.93;100599.84;108229;1279;22072;-81
2022/05/20 02:49:29;;;;;;;10.70;7.30;;;;;;;14.67;46.88;100598.59;108402;1279;22043;-81
2022/05/20 02:51:59;;;;;;;14.80;8.00;;;;;;;14.62;46.98;100595.55;108859;1273;23697;-82
2022/05/20 02:54:28;;;;;;;10.80;7.70;;;;;;;14.58;47.21;100596.13;108949;1267;22512;-80
2022/05/20 02:56:57;;;;;;;11.40;6.30;;;;;;;14.57;47.38;100593.58;109147;1267;22298;-80
2022/05/20 03:05:04;;;;;;;8.00;5.70;;;;;;;14.59;47.67;100586.98;108725;1270;21980;-82
2022/05/20 03:07:34;;;;;;;11.60;6.40;;;;;;;14.62;47.71;100588.24;108805;1270;22749;-82
2022/05/20 03:10:04;;;;;;;8.50;6.00;;;;;;;14.67;47.67;100593.08;109069;1270;22467;-80
2022/05/20 03:12:36;;;;;;;8.60;5.30;;;;;;;14.73;47.61;100599.15;108963;1273;22525;-78
2022/05/20 03:15:10;;;;;;;11.20;6.70;;;;;;;14.77;47.64;100603.54;108941;1270;22961;-78
2022/05/20 03:17:40;;;;;;;9.40;5.70;;;;;;;14.79;47.70;100605.23;109071;1266;21987;-79
2022/05/20 03:20:12;;;;;;;10.50;6.10;;;;;;;14.83;47.75;100607.44;108909;1267;22432;-80
2022/05/20 03:22:41;;;;;;;11.50;5.40;;;;;;;14.85;47.77;100608.20;109001;1266;22003;-81
2022/05/20 03:25:10;;;;;;;13.60;5.70;;;;;;;14.88;47.81;100607.52;108917;1266;21987;-82
2022/05/20 03:27:43;;;;;;;12.20;5.90;;;;;;;14.92;47.91;100605.08;108941;1267;21990;-80
2022/05/20 03:30:12;;;;;;;12.60;6.30;;;;;;;14.97;47.88;100602.63;109165;1267;23644;-80
2022/05/20 03:32:42;;;;;;;18.10;7.70;;;;;;;15.04;47.80;100603.94;108956;1267;23044;-80
2022/05/20 03:35:12;;;;;;;21.20;8.40;;;;;;;15.10;47.82;100606.00;109140;1267;22036;-80
2022/05/20 03:37:43;;;;;;;12.30;7.40;;;;;;;15.14;47.91;100605.92;109199;1267;22064;-82
2022/05/20 03:40:12;;;;;;;11.60;6.80;;;;;;;15.18;48.05;100612.27;109384;1267;21975;-80
2022/05/20 03:42:41;;;;;;;12.80;6.60;;;;;;;15.24;48.05;100609.25;108947;1267;21976;-74
2022/05/20 03:45:11;;;;;;;23.40;9.60;;;;;;;15.30;48.13;100607.78;108984;1267;22750;-74
2022/05/20 03:47:40;;;;;;;14.40;5.90;;;;;;;15.36;48.28;100608.98;108959;1266;23142;-74
2022/05/20 03:50:11;;;;;;;12.20;5.70;;;;;;;15.44;48.46;100606.29;108927;1267;21980;-75
2022/05/20 03:52:41;;;;;;;16.30;7.60;;;;;;;15.52;48.52;100606.48;109069;1267;21988;-75
2022/05/20 03:55:10;;;;;;;5.00;4.30;;;;;;;15.62;48.40;100609.29;108847;1267;22052;-74
2022/05/20 03:57:39;;;;;;;12.80;4.10;;;;;;;15.73;48.50;100607.55;109057;1267;23585;-75
2022/05/20 04:00:09;;;;;;;11.40;2.90;;;;;;;15.85;48.37;100603.40;109132;1267;21995;-75
2022/05/20 04:02:49;;;;;;;12.90;2.90;;;;;;;15.99;48.10;100605.58;108737;1270;23671;-74
2022/05/20 04:05:19;;;;;;;;;;;;;;;16.14;47.80;100603.89;108655;1271;22060;-75
2022/05/20 04:07:54;;;;;;;5.00;2.00;;;;;;;16.24;47.74;100606.11;108448;1276;23017;-75
2022/05/20 04:10:26;;;;;;;5.30;2.30;;;;;;;16.38;47.43;100607.56;108407;1276;22617;-75
2022/05/20 04:12:58;;;;;;;9.00;2.70;;;;;;;16.54;47.04;100604.08;108466;1276;22497;-75
2022/05/20 04:15:34;;;;;;;7.70;2.30;;;;;;;16.69;46.68;100610.36;108216;1279;22008;-75
2022/05/20 04:18:04;;;;;;;7.30;2.90;;;;;;;16.85;46.46;100613.27;107882;1285;23098;-75
2022/05/20 04:20:33;;;;;;;11.50;2.70;;;;;;;17.00;46.18;100616.11;107975;1279;23718;-74
2022/05/20 04:23:03;;;;;;;7.00;2.10;;;;;;;17.16;45.78;100616.33;107818;1285;22077;-75
2022/05/20 04:25:32;;;;;;;9.20;2.70;;;;;;;17.28;45.54;100625.37;107902;1279;22012;-75
2022/05/20 04:28:01;;;;;;;10.50;3.00;;;;;;;17.40;45.36;100626.98;108042;1279;22591;-75
2022/05/20 04:30:31;;;;;;;5.50;2.60;;;;;;;17.51;45.21;100629.15;108061;1279;23609;-75
2022/05/20 04:33:03;;;;;;;4.70;2.70;;;;;;;17.60;45.15;100628.36;108170;1276;23718;-76
2022/05/20 04:35:37;;;;;;;8.20;3.10;;;;;;;17.70;44.99;100631.65;108404;1272;23729;-77
2022/05/20 04:38:06;;;;;;;7.20;2.50;;;;;;;17.79;44.84;100633.09;108336;1276;23159;-75
2022/05/20 04:40:40;;;;;;;8.30;3.30;;;;;;;17.89;44.83;100640.23;108394;1272;23018;-75
2022/05/20 04:48:49;;;;;;;10.20;3.00;;;;;;;18.11;44.82;100645.56;108698;1273;21988;-74
2022/05/20 04:51:18;;;;;;;9.30;2.90;;;;;;;18.17;44.91;100647.77;108707;1273;23753;-75
2022/05/20 04:56:36;;;;;;;8.90;3.00;;;;;;;18.27;45.03;100642.36;108761;1267;22876;-75
2022/05/20 04:59:16;;;;;;;5.70;2.90;;;;;;;18.31;45.10;100640.69;108983;1266;21972;-76
2022/05/20 05:01:48;;;;;;;8.50;2.70;;;;;;;18.33;45.32;100644.73;108889;1267;22568;-76
2022/05/20 05:04:20;;;;;;;6.30;3.10;;;;;;;18.36;45.39;100647.24;108955;1267;23853;-76
2022/05/20 05:06:49;;;;;;;9.60;3.30;;;;;;;18.39;45.63;100652.80;109015;1266;23056;-76
2022/05/20 05:09:22;;;;;;;17.00;3.60;;;;;;;18.41;45.88;100654.77;108805;1267;21972;-75
2022/05/20 05:12:03;;;;;;;8.10;3.00;;;;;;;18.44;45.91;100660.14;109066;1267;24362;-76
2022/05/20 05:14:53;;;;;;;12.50;2.70;;;;;;;18.45;46.07;100659.36;109191;1266;21972;-75
2022/05/20 05:20:23;;;;;;;10.20;3.40;;;;;;;18.46;46.52;100661.77;109041;1266;23065;-75
2022/05/20 05:22:55;;;;;;;6.90;3.10;;;;;;;18.47;46.74;100666.68;108996;1266;21984;-75
2022/05/20 05:25:29;;;;;;;8.80;4.30;;;;;;;18.47;47.03;100670.50;108544;1270;23101;-82
2022/05/20 05:28:04;;;;;;;14.30;4.10;;;;;;;18.48;47.26;100674.90;108572;1273;21969;-76
2022/05/20 05:30:35;;;;;;;10.70;3.00;;;;;;;18.50;47.33;100676.71;108714;1269;21980;-76
2022/05/20 05:33:13;;;;;;;9.70;3.10;;;;;;;18.53;47.57;100674.18;108670;1270;22957;-76
2022/05/20 05:36:11;;;;;;;7.30;3.20;;;;;;;18.55;47.79;100673.56;108421;1275;23058;-76
2022/05/20 05:38:49;;;;;;;7.00;2.90;;;;;;;18.57;47.95;100675.56;108418;1276;23055;-76
2022/05/20 05:41:24;;;;;;;11.00;3.40;;;;;;;18.62;48.26;100678.27;108496;1273;22885;-76
2022/05/20 05:44:01;;;;;;;6.50;2.90;;;;;;;18.67;48.25;100685.23;108433;1276;21995;-76
2022/05/20 05:46:31;;;;;;;9.60;3.80;;;;;;;18.72;48.35;100682.16;108535;1276;21999;-76
2022/05/20 05:49:00;;;;;;;9.20;3.10;;;;;;;18.76;48.53;100681.85;108413;1276;21991;-76
2022/05/20 05:51:32;;;;;;;7.20;3.70;;;;;;;18.81;48.64;100686.73;108728;1273;21985;-76
2022/05/20 05:54:05;;;;;;;7.10;3.70;;;;;;;18.87;48.87;100686.16;108665;1269;23517;-75
2022/05/20 05:56:36;;;;;;;6.00;3.10;;;;;;;18.95;49.05;100683.40;108727;1270;22029;-75
2022/05/20 05:59:10;;;;;;;11.40;3.10;;;;;;;19.06;49.32;100690.38;108828;1270;21945;-84
2022/05/20 06:01:39;;;;;;;8.20;3.80;;;;;;;19.19;49.43;100692.60;108935;1270;21978;-75
2022/05/20 06:04:21;;;;;;;11.70;3.60;;;;;;;19.31;49.55;100690.80;109054;1270;22111;-78
2022/05/20 06:06:51;;;;;;;6.80;2.70;;;;;;;19.42;49.44;100691.33;108470;1276;22976;-76
2022/05/20 06:09:24;;;;;;;10.70;3.20;;;;;;;19.55;49.45;100698.93;108540;1276;22401;-76
2022/05/20 06:11:54;;;;;;;13.00;3.00;;;;;;;19.65;49.28;100704.04;108444;1276;24459;-76
2022/05/20 06:14:23;;;;;;;5.90;2.50;;;;;;;19.72;49.37;100703.49;108425;1270;23676;-76
2022/05/20 06:16:56;;;;;;;7.10;3.30;;;;;;;19.79;49.08;100698.60;108663;1271;21985;-76
2022/05/20 06:19:31;;;;;;;8.90;3.50;;;;;;;19.85;48.94;100703.55;108520;1270;22489;-76
2022/05/20 06:22:02;;;;;;;;;;;;;;;19.89;49.00;100699.91;108526;1276;22773;-76
2022/05/20 06:24:32;;;;;;;14.70;3.70;;;;;;;19.87;49.15;100699.81;108445;1276;23072;-78
2022/05/20 06:27:02;;;;;;;5.20;3.30;;;;;;;19.90;49.12;100700.44;108479;1276;23726;-79
2022/05/20 06:29:32;;;;;;;13.10;4.50;;;;;;;19.94;49.09;100701.80;108415;1276;21985;-76
2022/05/20 06:32:03;;;;;;;25.70;4.50;;;;;;;19.99;49.25;100700.65;108534;1270;22434;-76
2022/05/20 06:40:27;;;;;;;9.40;3.60;;;;;;;20.16;49.44;100691.73;108575;1272;23822;-76
2022/05/20 06:42:59;;;;;;;10.10;3.90;;;;;;;20.24;49.39;100691.14;108842;1273;22052;-80
2022/05/20 06:45:35;;;;;;;8.10;3.40;;;;;;;20.31;49.16;100690.78;108715;1273;22098;-76
2022/05/20 06:48:36;;;;;;;12.70;4.40;;;;;;;20.36;49.22;100694.85;108561;1273;21984;-76
2022/05/20 06:51:08;;;;;;;17.40;4.70;;;;;;;20.41;49.34;100695.58;108746;1273;21986;-75
2022/05/20 06:53:38;;;;;;;14.70;4.20;;;;;;;20.46;49.29;100696.48;108826;1267;23075;-75
2022/05/20 06:56:08;;;;;;;10.60;4.10;;;;;;;20.51;49.27;100697.51;109155;1266;22747;-76
2022/05/20 06:58:37;;;;;;;5.80;3.10;;;;;;;20.56;49.22;100697.00;109147;1267;22085;-76
2022/05/20 07:01:07;;;;;;;6.40;3.50;;;;;;;20.59;49.30;100700.23;109089;1267;22898;-77
2022/05/20 07:03:36;;;;;;;9.80;3.90;;;;;;;20.64;49.52;100700.41;109160;1266;23048;-75
2022/05/20 07:06:08;;;;;;;9.20;4.00;;;;;;;20.83;50.39;100704.34;109177;1267;22059;-76
2022/05/20 07:08:38;;;;;;;8.00;3.40;;;;;;;21.31;50.95;100706.89;109011;1267;22935;-75
2022/05/20 07:11:08;;;;;;;8.50;4.70;;;;;;;21.89;50.54;100710.02;109101;1267;22008;-81
2022/05/20 07:13:41;;;;;;;9.10;3.80;;;;;;;22.50;49.30;100705.61;109107;1266;21991;-75
2022/05/20 07:16:18;;;;;;;5.90;3.50;;;;;;;23.14;48.48;100704.20;109197;1265;21980;-76
2022/05/20 07:18:48;;;;;;;23.90;4.20;;;;;;;23.79;47.37;100705.20;109146;1266;21964;-75
2022/05/20 07:21:18;;;;;;;5.40;3.10;;;;;;;24.43;46.09;100704.00;108834;1267;367699;-75
2022/05/20 07:23:48;;;;;;;9.60;3.40;;;;;;;24.98;44.23;100700.54;108987;1266;22086;-76
2022/05/20 07:26:24;;;;;;;9.30;3.30;;;;;;;25.44;42.99;100699.27;108907;1267;23597;-75
2022/05/20 07:28:54;;;;;;;11.10;3.90;;;;;;;25.86;42.62;100704.58;109056;1266;23093;-75
2022/05/20 07:31:24;;;;;;;8.70;3.50;;;;;;;26.29;41.68;100707.52;109101;1267;22025;-75
2022/05/20 07:33:55;;;;;;;6.60;3.50;;;;;;;26.68;40.75;100707.45;108927;1267;23669;-76
2022/05/20 07:36:25;;;;;;;7.00;3.00;;;;;;;26.99;40.11;100704.49;109111;1267;22052;-76
2022/05/20 07:38:54;;;;;;;3.00;2.20;;;;;;;27.19;39.05;100710.52;109160;1267;23087;-75
2022/05/20 07:41:23;;;;;;;10.50;2.70;;;;;;;27.39;38.74;100713.13;109055;1266;22098;-75
2022/05/20 07:43:55;;;;;;;6.90;3.20;;;;;;;27.56;38.14;100715.03;109091;1265;22459;-75
2022/05/20 07:46:24;;;;;;;7.80;3.40;;;;;;;27.69;37.90;100716.39;109196;1266;21981;-75
2022/05/20 07:48:55;;;;;;;;;;;;;;;27.91;38.09;100715.45;109184;1267;22269;-75
2022/05/20 07:51:26;;;;;;;6.00;2.40;;;;;;;28.20;37.85;100715.22;109086;1267;22043;-76
2022/05/20 07:54:04;;;;;;;7.20;2.50;;;;;;;28.52;37.05;100711.64;109166;1265;22052;-75
2022/05/20 07:56:49;;;;;;;4.90;2.20;;;;;;;28.83;36.30;100709.96;109143;1267;23690;-76
2022/05/20 07:59:30;;;;;;;9.30;2.50;;;;;;;29.10;35.79;100708.52;109000;1267;21982;-75
2022/05/20 08:02:01;;;;;;;5.90;2.70;;;;;;;29.42;35.64;100711.00;109096;1267;22019;-74
2022/05/20 08:05:01;;;;;;;5.90;2.90;;;;;;;29.57;34.23;100709.52;109108;1266;21987;-74
2022/05/20 08:07:54;;;;;;;7.40;3.20;;;;;;;29.55;34.03;100709.69;109247;1266;22024;-75
2022/05/20 08:10:24;;;;;;;6.30;3.40;;;;;;;29.64;34.10;100707.83;109150;1267;22135;-75
2022/05/20 08:12:56;;;;;;;13.20;4.20;;;;;;;29.72;33.59;100701.00;108959;1267;22924;-74
2022/05/20 08:15:27;;;;;;;8.20;3.10;;;;;;;29.77;33.66;100700.25;109215;1267;21973;-74
2022/05/20 08:17:56;;;;;;;9.20;2.70;;;;;;;29.92;33.57;100708.00;108965;1267;21983;-76
2022/05/20 08:20:28;;;;;;;6.20;3.10;;;;;;;30.04;33.03;100706.98;108828;1270;23471;-75
2022/05/20 08:22:58;;;;;;;5.20;2.90;;;;;;;30.02;32.81;100708.64;108615;1273;23121;-75
2022/05/20 08:25:28;;;;;;;13.50;3.50;;;;;;;30.10;33.03;100704.86;108700;1273;22223;-74
2022/05/20 08:27:57;;;;;;;7.70;4.00;;;;;;;30.30;32.92;100706.55;108747;1273;22961;-75
2022/05/20 08:30:27;;;;;;;14.50;5.30;;;;;;;30.47;32.41;100708.59;108687;1273;21993;-75
2022/05/20 08:32:59;;;;;;;5.50;3.30;;;;;;;30.59;31.98;100705.11;108677;1272;23627;-75
2022/05/20 08:35:28;;;;;;;4.10;2.30;;;;;;;30.68;31.79;100699.58;108389;1276;22231;-77
2022/05/20 08:37:57;;;;;;;7.30;2.80;;;;;;;30.72;31.51;100697.13;108443;1272;22487;-75
2022/05/20 08:40:41;;;;;;;4.00;2.20;;;;;;;30.73;31.35;100698.03;108679;1272;22031;-75
2022/05/20 08:43:12;;;;;;;23.60;2.60;;;;;;;30.74;31.25;100700.88;108821;1270;22002;-75
2022/05/20 08:45:41;;;;;;;7.10;1.50;;;;;;;30.76;31.23;100699.33;108631;1271;23792;-74
2022/05/20 08:48:11;;;;;;;8.20;1.70;;;;;;;30.90;31.25;100702.13;108685;1273;23644;-75
2022/05/20 08:50:47;;;;;;;8.40;2.60;;;;;;;31.07;30.57;100699.74;108689;1272;22001;-76
2022/05/20 08:53:28;;;;;;;13.10;1.80;;;;;;;31.07;30.28;100700.20;108798;1267;21991;-75
2022/05/20 08:56:06;;;;;;;8.40;1.60;;;;;;;31.17;30.37;100701.95;109149;1267;21981;-75
2022/05/20 08:58:42;;;;;;;15.30;2.00;;;;;;;31.17;30.11;100697.52;109077;1267;23797;-76
2022/05/20 09:01:12;;;;;;;9.00;2.00;;;;;;;31.17;29.96;100698.11;109081;1267;21970;-74
2022/05/20 09:03:44;;;;;;;6.40;2.00;;;;;;;31.20;30.01;100696.55;109219;1266;23610;-76
2022/05/20 09:06:16;;;;;;;11.60;2.40;;;;;;;31.27;30.07;100688.08;109117;1267;22350;-75
2022/05/20 09:09:10;;;;;;;8.60;1.80;;;;;;;31.40;29.84;100686.80;108812;1267;22097;-75
2022/05/20 09:11:41;;;;;;;2.40;1.00;;;;;;;31.49;29.89;100682.44;108702;1270;23790;-75
2022/05/20 09:17:21;;;;;;;13.00;1.70;;;;;;;31.82;29.03;100687.92;108639;1273;23628;-75
2022/05/20 09:20:10;;;;;;;21.30;2.50;;;;;;;31.85;28.84;100686.27;108350;1273;23784;-75
2022/05/20 09:22:39;;;;;;;3.60;0.90;;;;;;;31.93;28.91;100687.14;108457;1273;22001;-74
2022/05/20 09:25:11;;;;;;;16.40;2.30;;;;;;;32.03;28.74;100685.85;108415;1273;22076;-75
2022/05/20 09:27:40;;;;;;;4.80;1.20;;;;;;;32.11;28.60;100680.92;108581;1273;22101;-75
2022/05/20 09:30:19;;;;;;;5.40;1.60;;;;;;;32.21;28.45;100682.42;108393;1273;23705;-74
2022/05/20 09:33:18;;;;;;;6.00;1.50;;;;;;;32.21;28.22;100684.60;108368;1276;22094;-76
2022/05/20 09:35:58;;;;;;;4.30;1.90;;;;;;;32.10;28.10;100685.42;108738;1270;22007;-75
2022/05/20 09:38:43;;;;;;;5.60;1.40;;;;;;;31.99;28.45;100681.98;108732;1269;22100;-75
2022/05/20 09:41:20;;;;;;;7.00;1.60;;;;;;;31.88;28.55;100680.80;108825;1267;23590;-75
2022/05/20 09:44:04;;;;;;;4.90;1.30;;;;;;;31.90;28.76;100675.27;108990;1266;22195;-75
2022/05/20 09:47:20;;;;;;;9.30;2.00;;;;;;;31.97;28.60;100679.13;109224;1266;21984;-75
2022/05/20 09:50:28;;;;;;;15.40;2.20;;;;;;;31.89;28.07;100670.92;108401;1276;22005;-75
2022/05/20 09:53:33;;;;;;;16.00;2.20;;;;;;;31.56;28.25;100673.58;107500;1288;23720;-75
2022/05/20 09:56:22;;;;;;;4.20;1.70;;;;;;;31.35;29.05;100671.77;107576;1288;22005;-75
2022/05/20 09:59:10;;;;;;;29.70;4.30;;;;;;;31.25;29.34;100671.86;107540;1288;22008;-75
2022/05/20 10:01:51;;;;;;;7.50;1.40;;;;;;;31.35;29.20;100670.79;107248;1291;22022;-74
2022/05/20 10:04:34;;;;;;;8.00;1.90;;;;;;;31.39;29.02;100662.64;107291;1291;22071;-74
2022/05/20 10:07:10;;;;;;;6.70;1.80;;;;;;;31.41;29.19;100662.27;107113;1291;21998;-74
2022/05/20 10:09:58;;;;;;;9.30;1.90;;;;;;;31.40;28.72;100662.84;107568;1288;23619;-76
2022/05/20 10:12:33;;;;;;;7.10;1.60;;;;;;;31.27;28.40;100664.72;107599;1288;22313;-76
2022/05/20 10:15:33;;;;;;;3.80;1.60;;;;;;;31.19;28.83;100658.97;107587;1288;23096;-74
2022/05/20 10:18:10;;;;;;;7.20;2.30;;;;;;;30.87;28.79;100657.81;107799;1282;23085;-74
2022/05/20 10:21:12;;;;;;;5.80;1.80;;;;;;;30.64;29.10;100654.59;108225;1279;22118;-75
2022/05/20 10:24:18;;;;;;;4.60;1.00;;;;;;;30.57;28.89;100652.67;108433;1273;22008;-73
2022/05/20 10:27:00;;;;;;;10.10;1.70;;;;;;;30.42;29.23;100654.50;108637;1273;22038;-74
2022/05/20 10:32:54;;;;;;;7.00;1.90;;;;;;;30.19;29.79;100643.13;108797;1270;23686;-75
2022/05/20 10:35:31;;;;;;;19.10;3.40;;;;;;;30.19;30.19;100635.68;108360;1276;21987;-74
2022/05/20 10:38:22;;;;;;;6.70;1.60;;;;;;;30.21;29.57;100638.60;108455;1274;22196;-74
2022/05/20 10:41:46;;;;;;;10.80;1.80;;;;;;;30.09;29.48;100638.29;108440;1275;23186;-74
2022/05/20 10:48:34;;;;;;;5.60;1.40;;;;;;;29.90;29.32;100624.62;108264;1279;23636;-75
2022/05/20 10:52:01;;;;;;;5.90;2.50;;;;;;;29.64;29.17;100619.02;107982;1282;23774;-75
2022/05/20 10:55:09;;;;;;;3.00;1.40;;;;;;;29.45;29.91;100620.94;107938;1282;22006;-75
2022/05/20 10:58:23;;;;;;;5.60;1.60;;;;;;;29.33;29.99;100620.77;108213;1282;23629;-84
2022/05/20 11:00:55;;;;;;;6.10;2.50;;;;;;;29.12;30.00;100614.11;108020;1282;23066;-75
2022/05/20 11:03:39;;;;;;;5.80;1.70;;;;;;;29.00;30.28;100614.58;108034;1282;21998;-75
2022/05/20 11:06:49;;;;;;;6.70;1.40;;;;;;;28.80;30.36;100610.64;107596;1288;23800;-76
2022/05/20 11:09:31;;;;;;;6.90;1.80;;;;;;;28.63;30.58;100613.37;107564;1287;22001;-76
2022/05/20 11:12:02;;;;;;;11.70;1.60;;;;;;;28.56;30.93;100616.13;107654;1288;22151;-75
2022/05/20 11:15:07;;;;;;;4.50;1.70;;;;;;;28.54;30.97;100609.67;107699;1288;22016;-76
2022/05/20 11:17:56;;;;;;;9.70;1.70;;;;;;;28.50;31.21;100609.91;106967;1296;22614;-79
2022/05/20 11:21:22;;;;;;;8.50;1.80;;;;;;;28.46;31.25;100619.88;106787;1291;22032;-75
2022/05/20 11:24:18;;;;;;;3.40;1.50;;;;;;;28.43;31.28;100621.20;106782;1289;22020;-74
2022/05/20 11:27:33;;;;;;;116.10;11.00;;;;;;;28.40;31.13;100617.36;107508;1285;24108;-75
2022/05/20 11:30:38;;;;;;;;;;;;;;;28.34;30.67;100618.50;107726;1285;22020;-74
2022/05/20 11:34:04;;;;;;;2.80;1.30;;;;;;;28.14;30.86;100611.54;107527;1289;22023;-75
2022/05/20 11:37:07;;;;;;;7.80;1.90;;;;;;;28.04;31.12;100609.95;107488;1289;22058;-72
2022/05/20 11:40:35;;;;;;;7.20;1.60;;;;;;;27.98;30.90;100600.52;107424;1290;23094;-73
2022/05/20 11:43:31;;;;;;;10.60;1.80;;;;;;;27.97;30.86;100602.59;107027;1290;23875;-74
2022/05/20 11:46:29;;;;;;;6.20;1.80;;;;;;;27.93;30.82;100601.05;106718;1296;23062;-74
2022/05/20 11:49:32;;;;;;;9.30;1.70;;;;;;;27.93;30.55;100599.02;106734;1296;23029;-73
2022/05/20 11:52:37;;;;;;;17.70;2.70;;;;;;;27.86;30.38;100600.79;106180;1301;22249;-73
2022/05/20 11:55:49;;;;;;;5.40;1.30;;;;;;;27.87;30.54;100594.48;106554;1296;23792;-74
2022/05/20 11:58:40;;;;;;;4.60;1.30;;;;;;;27.81;30.43;100592.70;106598;1296;24495;-74
2022/05/20 12:01:11;;;;;;;3.80;1.20;;;;;;;27.80;30.59;100588.91;107352;1290;23021;-73
2022/05/20 12:06:31;;;;;;;5.80;1.70;;;;;;;27.91;30.25;100586.60;107666;1287;22019;-73
2022/05/20 12:09:03;;;;;;;;;;;;;;;27.93;29.99;100582.40;107597;1287;21988;-73
2022/05/20 12:11:40;;;;;;;9.00;1.70;;;;;;;27.87;30.16;100584.83;108425;1273;22149;-73
2022/05/20 12:14:16;;;;;;;6.50;1.50;;;;;;;27.90;30.33;100584.70;108786;1267;22080;-77
2022/05/20 12:16:59;;;;;;;8.80;2.00;;;;;;;27.91;30.15;100584.98;108982;1267;22043;-75
2022/05/20 12:26:00;;;;;;;3.50;2.00;;;;;;;27.96;30.48;100567.80;108814;1270;22803;-78
2022/05/20 12:28:34;;;;;;;5.30;1.50;;;;;;;27.96;30.53;100571.10;108856;1270;21992;-76
2022/05/20 12:31:40;;;;;;;14.20;2.40;;;;;;;28.01;30.75;100570.64;108889;1270;21972;-79
2022/05/20 12:34:38;;;;;;;9.60;2.10;;;;;;;28.04;30.81;100561.98;108465;1273;23815;-78
2022/05/20 12:37:08;;;;;;;8.50;1.70;;;;;;;28.06;31.33;100560.84;108499;1273;21983;-73
2022/05/20 12:39:52;;;;;;;15.40;2.80;;;;;;;28.12;31.28;100557.55;108489;1273;22078;-74
2022/05/20 12:42:39;;;;;;;3.90;2.00;;;;;;;28.04;31.07;100553.19;108714;1271;23839;-73
2022/05/20 12:45:14;;;;;;;4.60;1.70;;;;;;;27.95;31.03;100544.77;108755;1270;23476;-73
2022/05/20 12:47:43;;;;;;;6.30;2.20;;;;;;;27.86;31.36;100543.61;108749;1270;21993;-73